Time;durP1;ratioP1;P1;durP2;ratioP2;P2;SDS_P1;SDS_P2;PMS_P1;PMS_P2;Temp;Humidity;BMP_temperature;BMP_pressure;BME280_temperature;BME280_humidity;BME280_pressure;Samples;Min_cycle;Max_cycle;Signal;HPM_P1;HPM_P2
2022/05/28 00:01:06;;;;;;;7.57;1.50;;;10.40;99.90;;;;;;4310796;28;9999963;-72
2022/05/28 00:03:32;;;;;;;11.82;2.00;;;10.40;99.90;;;;;;5010565;28;20026;-74
2022/05/28 00:05:58;;;;;;;5.20;1.20;;;10.40;99.90;;;;;;5014676;28;20034;-74
2022/05/28 00:08:25;;;;;;;9.20;2.03;;;10.40;99.90;;;;;;5008569;28;20136;-74
2022/05/28 00:10:53;;;;;;;5.65;1.20;;;10.40;99.90;;;;;;5007199;28;20021;-74
2022/05/28 00:13:19;;;;;;;6.25;1.60;;;10.40;99.90;;;;;;5010571;28;20108;-74
2022/05/28 00:15:45;;;;;;;8.18;1.40;;;10.40;99.90;;;;;;5017691;28;20116;-74
2022/05/28 00:18:10;;;;;;;7.55;1.63;;;10.40;99.90;;;;;;5000989;28;20061;-73
2022/05/28 00:20:36;;;;;;;6.97;1.48;;;10.30;99.90;;;;;;5015034;28;20092;-74
2022/05/28 00:23:02;;;;;;;13.52;1.95;;;10.30;99.90;;;;;;5011399;28;20039;-73
2022/05/28 00:25:28;;;;;;;11.07;1.55;;;10.30;99.90;;;;;;5008257;28;20022;-74
2022/05/28 00:27:54;;;;;;;7.72;1.52;;;10.30;99.90;;;;;;5014564;28;20091;-74
2022/05/28 00:30:20;;;;;;;8.07;1.30;;;10.20;99.90;;;;;;5016335;28;20057;-73
2022/05/28 00:32:46;;;;;;;4.85;1.10;;;10.20;99.90;;;;;;5015856;28;20041;-73
2022/05/28 00:35:15;;;;;;;7.57;1.75;;;10.20;99.90;;;;;;5007200;28;20033;-73
2022/05/28 00:37:42;;;;;;;6.97;1.80;;;10.10;99.90;;;;;;4998361;28;20040;-73
2022/05/28 00:40:12;;;;;;;8.20;1.50;;;10.10;99.90;;;;;;4999901;28;20033;-73
2022/05/28 00:42:37;;;;;;;5.18;1.45;;;10.10;99.90;;;;;;5011517;28;20030;-73
2022/05/28 00:45:04;;;;;;;11.77;2.20;;;10.00;99.90;;;;;;5012110;28;20123;-73
2022/05/28 00:47:30;;;;;;;6.95;1.80;;;10.00;99.90;;;;;;5013501;28;20026;-73
2022/05/28 00:49:56;;;;;;;8.70;1.88;;;9.90;99.90;;;;;;5003634;28;20402;-74
2022/05/28 00:52:25;;;;;;;6.60;1.80;;;10.00;99.90;;;;;;5003260;28;20021;-74
2022/05/28 00:54:52;;;;;;;7.72;1.60;;;10.00;99.90;;;;;;5006365;28;20072;-73
2022/05/28 00:57:20;;;;;;;7.68;1.70;;;10.00;99.90;;;;;;5011058;28;20773;-74
2022/05/28 00:59:46;;;;;;;12.52;1.90;;;10.00;99.90;;;;;;5003148;28;20508;-74
2022/05/28 01:02:29;;;;;;;10.30;1.60;;;10.00;99.90;;;;;;5004588;28;20459;-74
2022/05/28 01:05:07;;;;;;;8.80;1.55;;;10.00;99.90;;;;;;5017345;28;20079;-75
2022/05/28 01:07:42;;;;;;;6.85;1.30;;;9.90;99.90;;;;;;5006761;28;20033;-74
2022/05/28 01:10:21;;;;;;;7.60;1.67;;;9.90;99.90;;;;;;5009786;28;20028;-75
2022/05/28 01:12:55;;;;;;;8.30;1.60;;;9.90;99.90;;;;;;5022169;28;20040;-74
2022/05/28 01:15:32;;;;;;;10.02;2.00;;;9.90;99.90;;;;;;5008759;28;20129;-74
2022/05/28 01:18:06;;;;;;;10.73;1.95;;;9.80;99.90;;;;;;5008165;28;20053;-74
2022/05/28 01:20:42;;;;;;;7.80;1.60;;;9.80;99.90;;;;;;5005641;28;20127;-74
2022/05/28 01:23:26;;;;;;;8.40;2.10;;;9.70;99.90;;;;;;5011946;28;20030;-74
2022/05/28 01:25:56;;;;;;;5.50;1.50;;;9.70;99.90;;;;;;4993364;28;20129;-74
2022/05/28 01:28:26;;;;;;;7.47;1.67;;;9.70;99.90;;;;;;5014095;28;20121;-74
2022/05/28 01:30:53;;;;;;;4.70;1.17;;;9.70;99.90;;;;;;4995269;28;20034;-73
2022/05/28 01:33:20;;;;;;;8.05;1.75;;;9.70;99.90;;;;;;5012351;28;20026;-73
2022/05/28 01:35:48;;;;;;;7.80;1.90;;;9.70;99.90;;;;;;5002432;28;20061;-73
2022/05/28 01:38:15;;;;;;;7.63;1.70;;;9.60;99.90;;;;;;5009709;28;20072;-74
2022/05/28 01:40:41;;;;;;;8.40;1.70;;;9.70;99.90;;;;;;5008383;28;20036;-74
2022/05/28 01:43:10;;;;;;;7.32;1.38;;;9.70;99.90;;;;;;5009077;28;20132;-74
2022/05/28 01:45:38;;;;;;;9.48;1.75;;;9.60;99.90;;;;;;5005467;28;20541;-73
2022/05/28 01:48:06;;;;;;;5.13;1.42;;;9.60;99.90;;;;;;4994529;28;20038;-73
2022/05/28 01:50:36;;;;;;;7.75;1.90;;;9.60;99.90;;;;;;5000281;28;20037;-74
2022/05/28 01:53:05;;;;;;;10.77;1.75;;;9.50;99.90;;;;;;5000466;28;20029;-74
2022/05/28 01:55:35;;;;;;;8.05;1.58;;;9.60;99.90;;;;;;5009313;28;20482;-74
2022/05/28 01:58:01;;;;;;;8.27;2.10;;;9.50;99.90;;;;;;5003068;28;20239;-74
2022/05/28 02:00:28;;;;;;;8.95;2.10;;;9.50;99.90;;;;;;5001251;28;20030;-74
2022/05/28 02:02:58;;;;;;;8.40;1.48;;;9.40;99.90;;;;;;5006134;28;20030;-74
2022/05/28 02:05:24;;;;;;;6.97;1.60;;;9.40;99.90;;;;;;5004674;28;20036;-74
2022/05/28 02:07:49;;;;;;;11.02;2.03;;;9.40;99.90;;;;;;5013498;28;20025;-74
2022/05/28 02:10:18;;;;;;;10.20;2.13;;;9.30;99.90;;;;;;5008340;28;20029;-74
2022/05/28 02:12:54;;;;;;;4.50;1.60;;;9.30;99.90;;;;;;4993303;28;20046;-74
2022/05/28 02:15:44;;;;;;;10.80;1.83;;;9.20;99.90;;;;;;4985965;28;20019;-74
2022/05/28 02:18:31;;;;;;;6.80;1.67;;;9.20;99.90;;;;;;4975988;28;20038;-74
2022/05/28 02:21:10;;;;;;;5.07;1.33;;;9.10;99.90;;;;;;4988832;28;20517;-74
2022/05/28 02:23:48;;;;;;;8.57;1.73;;;9.10;99.90;;;;;;4987649;28;20034;-74
2022/05/28 02:26:33;;;;;;;10.65;2.42;;;9.00;99.90;;;;;;4985600;28;20029;-74
2022/05/28 02:29:00;;;;;;;7.20;1.60;;;9.00;99.90;;;;;;4998117;28;20057;-74
2022/05/28 02:31:29;;;;;;;8.93;1.67;;;9.00;99.90;;;;;;4998643;28;20422;-74
2022/05/28 02:33:55;;;;;;;5.40;1.50;;;9.00;99.90;;;;;;4988855;28;20037;-74
2022/05/28 02:36:22;;;;;;;8.35;1.90;;;9.00;99.90;;;;;;4997735;28;20034;-74
2022/05/28 02:38:48;;;;;;;9.18;1.70;;;9.00;99.90;;;;;;4995010;28;20145;-73
2022/05/28 02:41:14;;;;;;;11.00;2.00;;;9.00;99.90;;;;;;4990825;28;20140;-74
2022/05/28 02:43:39;;;;;;;7.45;1.80;;;9.10;99.90;;;;;;4999880;28;20032;-74
2022/05/28 02:46:06;;;;;;;11.75;2.15;;;9.00;99.90;;;;;;5005041;28;20094;-73
2022/05/28 02:48:33;;;;;;;5.68;1.63;;;9.00;99.90;;;;;;4987745;28;20026;-73
2022/05/28 02:51:20;;;;;;;7.53;1.83;;;9.00;99.90;;;;;;4985334;28;20517;-73
2022/05/28 02:53:50;;;;;;;9.45;1.88;;;9.00;99.90;;;;;;4998211;28;20462;-74
2022/05/28 02:56:16;;;;;;;7.85;1.95;;;9.00;99.90;;;;;;5001725;28;20026;-73
2022/05/28 02:58:42;;;;;;;8.30;2.00;;;8.90;99.90;;;;;;4994711;28;20049;-74
2022/05/28 03:01:30;;;;;;;7.38;1.85;;;8.80;99.90;;;;;;4980937;28;20030;-73
2022/05/28 03:03:57;;;;;;;10.05;1.88;;;8.80;99.90;;;;;;4981713;28;20030;-74
2022/05/28 03:06:23;;;;;;;8.13;2.08;;;8.80;99.90;;;;;;4994091;28;20053;-74
2022/05/28 03:08:49;;;;;;;8.93;2.00;;;8.80;99.90;;;;;;4999605;28;20076;-73
2022/05/28 03:11:15;;;;;;;9.50;1.80;;;8.90;99.90;;;;;;4997943;28;20030;-73
2022/05/28 03:13:41;;;;;;;9.68;1.67;;;8.90;99.90;;;;;;4983641;28;20103;-73
2022/05/28 03:16:07;;;;;;;10.15;2.22;;;8.80;99.90;;;;;;4996377;28;20084;-73
2022/05/28 03:18:33;;;;;;;8.85;1.73;;;8.90;99.90;;;;;;4986570;28;20038;-73
2022/05/28 03:20:59;;;;;;;7.90;1.95;;;8.90;99.90;;;;;;4987700;28;20038;-73
2022/05/28 03:23:25;;;;;;;10.15;2.17;;;8.90;99.90;;;;;;4994541;28;20026;-73
2022/05/28 03:25:50;;;;;;;6.25;1.90;;;9.00;99.90;;;;;;5001442;28;20034;-73
2022/05/28 03:28:16;;;;;;;7.60;2.05;;;8.90;99.90;;;;;;4991070;28;20172;-73
2022/05/28 03:30:42;;;;;;;9.27;1.80;;;8.90;99.90;;;;;;4984246;28;20568;-73
2022/05/28 03:33:07;;;;;;;9.13;2.03;;;8.90;99.90;;;;;;4992403;28;20063;-73
2022/05/28 03:35:33;;;;;;;6.43;1.60;;;8.90;99.90;;;;;;5005770;28;20053;-73
2022/05/28 03:37:59;;;;;;;10.18;2.13;;;8.90;99.90;;;;;;4998576;28;20030;-73
2022/05/28 03:40:25;;;;;;;8.00;2.00;;;8.90;99.90;;;;;;4986405;28;20479;-73
2022/05/28 03:42:50;;;;;;;8.82;1.77;;;8.90;99.90;;;;;;4991893;28;20109;-73
2022/05/28 03:45:16;;;;;;;5.95;1.90;;;8.80;99.90;;;;;;5000865;28;20050;-73
2022/05/28 03:47:42;;;;;;;7.82;1.90;;;8.90;99.90;;;;;;4995332;28;20117;-73
2022/05/28 03:50:08;;;;;;;8.43;1.83;;;8.90;99.90;;;;;;4995862;28;20030;-72
2022/05/28 03:52:34;;;;;;;9.88;2.40;;;8.90;99.90;;;;;;4995226;28;20061;-73
2022/05/28 03:54:59;;;;;;;7.93;1.63;;;8.90;99.90;;;;;;4999982;28;20056;-73
2022/05/28 03:57:32;;;;;;;10.27;2.10;;;9.00;99.90;;;;;;4988895;28;20037;-73
2022/05/28 03:59:58;;;;;;;10.57;2.35;;;9.00;99.90;;;;;;4990526;28;20098;-72
2022/05/28 04:02:25;;;;;;;7.75;1.95;;;9.10;99.90;;;;;;4987210;28;20037;-72
2022/05/28 04:04:51;;;;;;;7.50;1.90;;;9.10;99.90;;;;;;4986250;28;20034;-73
2022/05/28 04:07:17;;;;;;;11.00;2.28;;;9.20;99.90;;;;;;4985910;28;20088;-71
2022/05/28 04:09:43;;;;;;;9.95;2.30;;;9.20;99.90;;;;;;4996385;28;20137;-73
2022/05/28 04:12:10;;;;;;;8.70;2.20;;;9.20;99.90;;;;;;5005161;28;20629;-73
2022/05/28 04:14:35;;;;;;;7.40;1.98;;;9.20;99.90;;;;;;5017535;28;20025;-73
2022/05/28 04:17:02;;;;;;;9.68;2.20;;;9.20;99.90;;;;;;5023230;28;20033;-73
2022/05/28 04:19:27;;;;;;;7.28;1.80;;;9.30;99.90;;;;;;5012942;28;20147;-72
2022/05/28 04:21:53;;;;;;;9.57;1.95;;;9.30;99.90;;;;;;5004219;28;20937;-73
2022/05/28 04:24:18;;;;;;;10.20;2.28;;;9.30;99.90;;;;;;5015980;28;20037;-73
2022/05/28 04:26:44;;;;;;;11.45;2.63;;;9.40;99.90;;;;;;5021499;28;20037;-72
2022/05/28 04:29:10;;;;;;;10.80;2.30;;;9.40;99.90;;;;;;5004792;28;20036;-72
2022/05/28 04:31:35;;;;;;;8.63;2.03;;;9.50;99.90;;;;;;5005093;28;20038;-72
2022/05/28 04:34:02;;;;;;;10.63;2.22;;;9.50;99.90;;;;;;5011391;28;20033;-72
2022/05/28 04:36:27;;;;;;;9.43;2.25;;;9.60;99.90;;;;;;5013581;28;20034;-72
2022/05/28 04:38:53;;;;;;;7.13;2.10;;;9.70;99.90;;;;;;5005243;28;20033;-72
2022/05/28 04:41:19;;;;;;;7.38;2.22;;;9.80;99.90;;;;;;5006772;28;20497;-73
2022/05/28 04:43:45;;;;;;;14.07;2.60;;;9.80;99.90;;;;;;5017625;28;20037;-72
2022/05/28 04:46:11;;;;;;;13.02;2.40;;;9.90;99.90;;;;;;5007098;28;20486;-72
2022/05/28 04:48:38;;;;;;;11.40;2.63;;;9.90;99.90;;;;;;5012388;28;20029;-72
2022/05/28 04:51:04;;;;;;;8.93;2.50;;;9.90;99.90;;;;;;5007660;28;20593;-72
2022/05/28 04:53:29;;;;;;;9.57;2.53;;;9.80;99.90;;;;;;5019152;28;20132;-73
2022/05/28 04:55:55;;;;;;;11.45;2.58;;;9.80;99.90;;;;;;4998929;28;20121;-72
2022/05/28 04:58:21;;;;;;;11.80;2.60;;;9.80;99.90;;;;;;5008127;28;20029;-73
2022/05/28 05:00:47;;;;;;;8.10;2.28;;;9.80;99.90;;;;;;5004872;28;20424;-73
2022/05/28 05:03:13;;;;;;;10.75;2.47;;;9.80;99.90;;;;;;5003442;28;20093;-72
2022/05/28 05:05:39;;;;;;;12.55;2.58;;;9.90;99.90;;;;;;5008110;28;20029;-73
2022/05/28 05:08:05;;;;;;;4.57;1.75;;;10.10;99.90;;;;;;5010525;28;20421;-73
2022/05/28 05:10:32;;;;;;;8.27;2.15;;;10.40;99.90;;;;;;5003158;28;20449;-72
2022/05/28 05:12:59;;;;;;;8.20;1.90;;;10.80;99.90;;;;;;4648752;28;10000598;-72
2022/05/28 05:15:24;;;;;;;11.20;2.13;;;11.20;99.90;;;;;;5011302;28;20273;-72
2022/05/28 05:17:50;;;;;;;9.27;1.88;;;11.40;99.90;;;;;;5002025;28;20034;-72
2022/05/28 05:20:17;;;;;;;6.43;1.90;;;11.70;99.90;;;;;;5005981;28;20123;-72
2022/05/28 05:22:43;;;;;;;4.78;1.73;;;11.80;99.90;;;;;;4997325;28;20128;-73
2022/05/28 05:25:12;;;;;;;7.93;1.92;;;12.10;99.90;;;;;;5002109;28;20034;-72
2022/05/28 05:27:38;;;;;;;9.38;2.15;;;12.20;99.90;;;;;;4994838;28;20022;-73
2022/05/28 05:30:05;;;;;;;14.25;2.65;;;12.40;99.90;;;;;;5000258;28;20025;-72
2022/05/28 05:32:31;;;;;;;7.88;2.00;;;12.60;99.90;;;;;;5009190;28;20528;-73
2022/05/28 05:34:57;;;;;;;8.95;2.25;;;12.80;99.90;;;;;;5003213;28;20029;-73
2022/05/28 05:37:23;;;;;;;10.25;1.90;;;12.80;99.90;;;;;;5001855;28;20453;-72
2022/05/28 05:39:48;;;;;;;11.18;2.35;;;13.00;99.90;;;;;;5004076;28;20041;-72
2022/05/28 05:42:14;;;;;;;7.90;2.40;;;13.20;99.90;;;;;;5005705;28;20397;-72
2022/05/28 05:44:40;;;;;;;10.18;2.10;;;13.20;99.90;;;;;;5007848;28;20036;-72
2022/05/28 05:47:06;;;;;;;5.53;2.10;;;13.30;99.90;;;;;;5006701;28;20474;-72
2022/05/28 05:49:32;;;;;;;11.07;2.35;;;13.30;99.90;;;;;;5002495;28;20528;-72
2022/05/28 05:51:57;;;;;;;10.40;2.20;;;13.10;99.90;;;;;;5003388;28;20026;-73
2022/05/28 05:54:24;;;;;;;9.10;2.20;;;13.00;99.90;;;;;;5008712;28;20666;-72
2022/05/28 05:56:50;;;;;;;8.68;2.40;;;12.90;99.90;;;;;;5012439;28;20029;-72
2022/05/28 05:59:16;;;;;;;9.50;1.90;;;12.80;99.90;;;;;;5014352;28;20565;-72
2022/05/28 06:01:42;;;;;;;7.72;1.90;;;12.70;99.90;;;;;;5010732;28;20124;-72
2022/05/28 06:04:07;;;;;;;7.00;1.92;;;12.70;99.90;;;;;;5003441;28;20054;-72
2022/05/28 06:06:34;;;;;;;6.57;1.55;;;12.60;99.90;;;;;;5008920;28;20037;-72
2022/05/28 06:09:00;;;;;;;10.35;1.77;;;12.60;99.90;;;;;;5007564;28;20084;-72
2022/05/28 06:11:26;;;;;;;7.43;1.70;;;12.60;99.90;;;;;;5012532;28;20061;-72
2022/05/28 06:13:52;;;;;;;7.80;1.77;;;12.60;99.90;;;;;;5005924;28;20133;-72
2022/05/28 06:16:17;;;;;;;8.68;1.55;;;12.70;99.90;;;;;;5011726;28;20036;-72
2022/05/28 06:18:43;;;;;;;11.43;2.03;;;12.60;99.90;;;;;;5004790;28;20056;-73
2022/05/28 06:21:09;;;;;;;4.00;1.30;;;12.60;99.90;;;;;;5005690;28;20080;-72
2022/05/28 06:23:35;;;;;;;7.57;1.63;;;12.70;99.90;;;;;;5006444;28;20038;-72
2022/05/28 06:26:03;;;;;;;8.82;1.35;;;12.70;99.90;;;;;;5005042;28;20045;-72
2022/05/28 06:28:29;;;;;;;5.43;1.23;;;12.70;99.90;;;;;;5007570;28;20486;-72
2022/05/28 06:31:00;;;;;;;9.02;1.33;;;12.80;99.90;;;;;;5010584;28;20095;-72
2022/05/28 06:33:25;;;;;;;5.15;1.55;;;12.90;99.90;;;;;;5010179;28;20449;-72
2022/05/28 06:36:02;;;;;;;8.38;1.15;;;13.10;99.90;;;;;;5009695;28;20033;-72
2022/05/28 06:38:28;;;;;;;8.35;1.30;;;13.20;99.90;;;;;;5011410;28;20091;-71
2022/05/28 06:41:21;;;;;;;6.57;1.20;;;13.40;99.90;;;;;;5008932;28;20030;-71
2022/05/28 06:43:47;;;;;;;8.00;1.60;;;13.70;99.90;;;;;;5001145;28;20406;-72
2022/05/28 06:46:12;;;;;;;4.88;1.13;;;14.00;99.90;;;;;;5007996;28;20033;-72
2022/05/28 06:48:38;;;;;;;5.07;1.27;;;14.00;99.90;;;;;;5006118;28;20022;-73
2022/05/28 06:51:05;;;;;;;6.65;1.33;;;14.20;99.90;;;;;;5008843;28;20061;-73
2022/05/28 06:53:40;;;;;;;6.05;0.90;;;14.40;99.90;;;;;;4989577;28;20034;-73
2022/05/28 06:56:07;;;;;;;5.53;1.20;;;14.40;99.90;;;;;;5008243;28;20486;-73
2022/05/28 06:58:33;;;;;;;3.72;0.95;;;14.50;99.90;;;;;;5006565;28;20091;-72
2022/05/28 07:00:59;;;;;;;5.20;1.15;;;14.60;99.90;;;;;;5021123;28;20029;-73
2022/05/28 07:03:27;;;;;;;7.72;1.08;;;14.70;99.90;;;;;;5013590;28;20087;-72
2022/05/28 07:05:54;;;;;;;4.53;1.20;;;14.80;99.90;;;;;;5008514;28;20084;-73
2022/05/28 07:08:19;;;;;;;8.10;1.40;;;14.60;99.90;;;;;;5006441;28;20046;-73
2022/05/28 07:10:51;;;;;;;5.07;1.15;;;14.70;99.90;;;;;;5004711;28;20038;-73
2022/05/28 07:13:18;;;;;;;7.45;1.60;;;14.60;99.90;;;;;;5006350;28;20390;-73
2022/05/28 07:15:44;;;;;;;8.35;1.63;;;14.90;99.90;;;;;;5007660;28;20145;-73
2022/05/28 07:18:10;;;;;;;6.25;1.30;;;15.10;99.90;;;;;;5004637;28;20759;-71
2022/05/28 07:20:36;;;;;;;5.25;1.30;;;14.80;99.90;;;;;;5004571;28;20034;-73
2022/05/28 07:23:17;;;;;;;7.50;1.83;;;14.80;99.90;;;;;;5003894;28;20070;-74
2022/05/28 07:25:44;;;;;;;6.60;1.30;;;14.50;99.90;;;;;;5007793;28;20045;-73
2022/05/28 07:28:27;;;;;;;8.40;1.52;;;14.60;99.90;;;;;;4999735;28;20057;-72
2022/05/28 07:31:01;;;;;;;6.60;1.52;;;14.70;99.90;;;;;;5006439;28;20045;-73
2022/05/28 07:33:28;;;;;;;7.35;1.50;;;14.60;99.90;;;;;;5018728;28;20120;-73
2022/05/28 07:35:56;;;;;;;7.60;1.27;;;14.60;99.90;;;;;;5002791;28;20030;-72
2022/05/28 07:38:23;;;;;;;5.32;1.35;;;14.50;99.90;;;;;;5007660;28;20465;-73
2022/05/28 07:40:50;;;;;;;4.53;1.33;;;14.40;99.90;;;;;;5019942;28;20458;-73
2022/05/28 07:43:15;;;;;;;8.85;1.38;;;14.40;99.90;;;;;;5000405;28;20037;-72
2022/05/28 07:45:43;;;;;;;4.30;0.93;;;14.60;99.90;;;;;;5005797;28;20398;-72
2022/05/28 07:48:10;;;;;;;3.83;1.10;;;14.70;99.90;;;;;;5010523;28;20029;-72
2022/05/28 07:50:35;;;;;;;6.97;1.17;;;14.70;99.90;;;;;;4994452;28;20109;-72
2022/05/28 07:53:01;;;;;;;7.72;1.15;;;14.60;99.90;;;;;;5011431;28;20312;-73
2022/05/28 07:55:28;;;;;;;9.98;1.30;;;14.60;99.90;;;;;;5006989;28;20034;-73
2022/05/28 07:57:54;;;;;;;5.00;1.13;;;14.50;99.90;;;;;;5012612;28;20037;-73
2022/05/28 08:00:20;;;;;;;5.53;1.13;;;14.30;99.90;;;;;;5006792;28;20036;-72
2022/05/28 08:02:45;;;;;;;5.78;1.13;;;14.20;99.90;;;;;;5002169;28;20063;-72
2022/05/28 08:05:11;;;;;;;9.25;1.30;;;14.10;99.90;;;;;;5013525;28;20034;-72
2022/05/28 08:07:37;;;;;;;9.98;1.38;;;14.10;99.90;;;;;;5012063;28;20529;-72
2022/05/28 08:10:03;;;;;;;6.13;1.40;;;14.00;99.90;;;;;;5002037;28;20038;-72
2022/05/28 08:12:29;;;;;;;13.40;1.58;;;13.80;99.90;;;;;;5002619;28;20085;-72
2022/05/28 08:14:55;;;;;;;9.43;1.48;;;13.60;99.90;;;;;;5000069;28;20050;-72
2022/05/28 08:17:21;;;;;;;5.50;1.13;;;13.60;99.90;;;;;;5006919;28;20117;-73
2022/05/28 08:19:47;;;;;;;8.18;1.20;;;13.50;99.90;;;;;;5001319;28;20116;-72
2022/05/28 08:24:58;;;;;;;9.27;1.52;;;13.40;99.90;;;;;;5007650;28;20405;-72
2022/05/28 08:27:23;;;;;;;10.90;1.83;;;13.30;99.90;;;;;;5000491;28;20104;-72
2022/05/28 08:29:49;;;;;;;10.10;1.63;;;13.40;99.90;;;;;;5002117;28;20781;-72
2022/05/28 08:32:18;;;;;;;6.57;1.40;;;13.40;99.90;;;;;;5008339;28;20029;-72
2022/05/28 08:34:44;;;;;;;8.98;1.80;;;13.60;99.90;;;;;;5003653;28;20040;-73
2022/05/28 08:37:11;;;;;;;8.00;1.48;;;13.80;99.90;;;;;;5004404;28;20045;-72
2022/05/28 08:39:37;;;;;;;10.38;1.50;;;13.90;99.90;;;;;;5009771;28;20030;-72
2022/05/28 08:42:03;;;;;;;8.75;1.70;;;14.20;99.90;;;;;;5024336;28;20026;-72
2022/05/28 08:44:32;;;;;;;7.65;1.63;;;14.70;99.90;;;;;;5010514;28;20030;-72
2022/05/28 08:47:18;;;;;;;6.90;1.30;;;14.90;99.90;;;;;;5008638;28;20876;-72
2022/05/28 08:49:48;;;;;;;5.13;1.10;;;15.50;99.90;;;;;;5008792;28;20072;-72
2022/05/28 08:52:16;;;;;;;7.43;1.30;;;16.00;99.90;;;;;;5009289;28;20053;-72
2022/05/28 08:54:58;;;;;;;7.45;1.15;;;16.10;96.50;;;;;;5004468;28;20084;-72
2022/05/28 08:57:48;;;;;;;7.75;1.20;;;16.00;95.80;;;;;;5008044;28;20021;-72
2022/05/28 09:00:40;;;;;;;4.93;1.05;;;15.90;97.50;;;;;;5006643;28;20033;-72
2022/05/28 09:03:13;;;;;;;6.47;1.23;;;15.70;95.90;;;;;;5003165;28;20061;-72
2022/05/28 09:05:44;;;;;;;;;;;15.60;99.90;;;;;;5002939;28;20409;-72
2022/05/28 09:08:11;;;;;;;5.22;1.27;;;15.60;99.90;;;;;;4999669;28;19940;-72
2022/05/28 09:10:43;;;;;;;3.38;0.95;;;15.70;99.90;;;;;;4998754;28;20409;-71
2022/05/28 09:13:28;;;;;;;5.50;1.13;;;16.00;99.90;;;;;;4997526;28;20038;-72
2022/05/28 09:15:57;;;;;;;3.30;1.02;;;16.50;99.90;;;;;;5015541;28;20113;-72
2022/05/28 09:18:27;;;;;;;5.72;1.10;;;16.80;92.80;;;;;;4999673;28;20103;-72
2022/05/28 09:20:52;;;;;;;3.33;0.93;;;16.70;91.90;;;;;;5003645;28;20109;-72
2022/05/28 09:23:18;;;;;;;5.45;0.93;;;16.90;99.90;;;;;;5011810;28;20438;-72
2022/05/28 09:25:47;;;;;;;6.90;1.02;;;16.70;89.10;;;;;;5004203;28;20045;-72
2022/05/28 09:28:27;;;;;;;8.32;1.20;;;16.50;89.70;;;;;;5011501;28;20037;-72
2022/05/28 09:31:25;;;;;;;7.20;1.23;;;16.30;88.40;;;;;;5001367;28;20101;-72
2022/05/28 09:33:54;;;;;;;4.20;1.33;;;16.20;99.90;;;;;;4981221;28;20060;-72
2022/05/28 09:36:40;;;;;;;3.35;1.15;;;16.00;99.90;;;;;;5008751;28;20088;-72
2022/05/28 09:39:09;;;;;;;5.60;0.90;;;15.80;92.30;;;;;;5000417;28;20049;-72
2022/05/28 09:41:53;;;;;;;5.40;1.27;;;15.70;91.80;;;;;;4997823;28;20739;-72
2022/05/28 09:44:24;;;;;;;5.70;1.27;;;15.50;91.70;;;;;;5015659;28;20426;-72
2022/05/28 09:46:50;;;;;;;5.93;1.48;;;15.40;92.40;;;;;;5016896;28;20583;-72
2022/05/28 09:49:24;;;;;;;5.85;1.15;;;15.40;92.40;;;;;;5013898;28;20080;-72
2022/05/28 09:51:57;;;;;;;6.68;1.33;;;15.50;93.70;;;;;;5016089;28;20549;-72
2022/05/28 09:54:25;;;;;;;4.33;1.10;;;;;;;;;;5001558;28;20026;-71
2022/05/28 09:56:52;;;;;;;5.22;0.93;;;15.60;93.10;;;;;;5006508;28;20553;-72
2022/05/28 09:59:35;;;;;;;19.33;2.28;;;;;;;;;;5002969;28;20559;-74
2022/05/28 10:02:28;;;;;;;7.10;1.13;;;15.90;92.90;;;;;;5010163;28;20018;-73
2022/05/28 10:05:03;;;;;;;3.75;1.02;;;16.10;90.30;;;;;;5009427;28;20030;-73
2022/05/28 10:07:44;;;;;;;3.92;1.10;;;16.40;90.70;;;;;;5030353;28;20037;-77
2022/05/28 10:10:20;;;;;;;7.65;0.80;;;16.60;89.60;;;;;;5006594;28;20022;-74
2022/05/28 10:12:47;;;;;;;4.60;1.00;;;16.60;90.30;;;;;;5018825;28;20061;-73
2022/05/28 10:15:17;;;;;;;3.38;0.88;;;16.80;99.40;;;;;;5014922;28;20025;-72
2022/05/28 10:17:53;;;;;;;7.82;0.85;;;16.80;89.10;;;;;;5005746;28;20026;-71
2022/05/28 10:20:20;;;;;;;4.40;0.90;;;17.00;89.70;;;;;;5003768;28;20038;-71
2022/05/28 10:22:48;;;;;;;5.78;0.80;;;17.30;90.00;;;;;;5019522;28;20041;-72
2022/05/28 10:25:41;;;;;;;3.40;0.80;;;17.60;86.80;;;;;;5007927;28;20036;-71
2022/05/28 10:28:07;;;;;;;15.73;1.10;;;17.60;85.90;;;;;;5014009;28;20021;-71
2022/05/28 10:30:33;;;;;;;3.08;0.60;;;17.40;86.40;;;;;;5009945;28;20113;-73
2022/05/28 10:33:05;;;;;;;7.25;0.93;;;17.20;84.00;;;;;;5003733;28;20022;-73
2022/05/28 10:35:31;;;;;;;3.17;0.65;;;17.20;81.80;;;;;;5009932;28;20029;-73
2022/05/28 10:38:11;;;;;;;3.40;0.80;;;17.30;83.90;;;;;;5005628;28;20486;-74
2022/05/28 10:40:50;;;;;;;4.38;0.60;;;17.40;82.40;;;;;;5001680;28;20025;-73
2022/05/28 10:43:36;;;;;;;2.63;0.68;;;17.60;81.20;;;;;;5014796;28;20026;-73
2022/05/28 10:46:15;;;;;;;3.00;1.00;;;17.70;82.20;;;;;;5003884;28;20088;-74
2022/05/28 10:48:53;;;;;;;5.63;0.90;;;17.40;78.00;;;;;;5007283;28;20034;-74
2022/05/28 10:51:37;;;;;;;3.60;0.95;;;17.10;79.70;;;;;;5014003;28;20034;-74
2022/05/28 10:54:18;;;;;;;5.75;0.63;;;17.20;82.70;;;;;;5003135;28;20064;-74
2022/05/28 10:56:55;;;;;;;5.10;1.05;;;17.40;79.80;;;;;;5009638;28;20046;-74
2022/05/28 10:59:34;;;;;;;6.30;1.05;;;17.40;76.20;;;;;;5005077;28;20121;-74
2022/05/28 11:02:25;;;;;;;4.40;0.93;;;17.20;78.40;;;;;;5008189;28;20057;-74
2022/05/28 11:05:11;;;;;;;3.47;0.90;;;17.10;81.10;;;;;;5011445;28;20018;-74
2022/05/28 11:07:49;;;;;;;6.30;1.38;;;16.90;79.50;;;;;;5023217;28;20120;-74
2022/05/28 11:10:32;;;;;;;4.80;0.90;;;17.10;82.50;;;;;;5000447;28;20559;-74
2022/05/28 11:13:16;;;;;;;4.40;1.00;;;17.40;82.70;;;;;;4995090;28;20490;-75
2022/05/28 11:16:02;;;;;;;4.95;0.90;;;17.60;76.30;;;;;;5007254;28;20376;-74
2022/05/28 11:19:06;;;;;;;4.15;1.00;;;18.00;78.00;;;;;;5012307;28;20563;-73
2022/05/28 11:21:57;;;;;;;5.70;0.98;;;18.00;75.50;;;;;;4997916;28;20092;-74
2022/05/28 11:34:31;;;;;;;2.42;0.75;;;17.60;75.60;;;;;;5032952;28;20382;-73
2022/05/28 11:37:05;;;;;;;2.28;0.90;;;17.60;73.90;;;;;;5013019;28;20045;-74
2022/05/28 11:40:10;;;;;;;2.35;0.50;;;17.30;75.30;;;;;;5017188;28;20053;-74
2022/05/28 11:42:48;;;;;;;4.82;0.95;;;17.40;74.40;;;;;;4990975;28;20026;-73
2022/05/28 11:45:44;;;;;;;2.30;0.80;;;17.70;74.90;;;;;;5015034;28;20046;-73
2022/05/28 11:48:13;;;;;;;2.88;0.75;;;17.90;73.80;;;;;;5019668;28;20041;-74
2022/05/28 11:53:50;;;;;;;2.08;0.80;;;18.10;72.70;;;;;;5012887;28;20059;-73
2022/05/28 11:56:21;;;;;;;2.47;0.70;;;17.90;73.90;;;;;;5023288;28;20029;-73
2022/05/28 11:58:51;;;;;;;3.00;0.82;;;18.10;73.60;;;;;;5019501;28;20033;-73
2022/05/28 12:01:26;;;;;;;2.92;0.50;;;18.30;71.80;;;;;;5012361;28;20052;-73
2022/05/28 12:03:52;;;;;;;4.97;0.95;;;18.50;69.20;;;;;;5020537;28;20109;-74
2022/05/28 12:06:25;;;;;;;2.83;0.63;;;18.70;71.90;;;;;;5008832;28;20034;-74
2022/05/28 12:09:00;;;;;;;4.40;0.90;;;18.90;70.40;;;;;;5015865;28;20560;-73
2022/05/28 12:11:35;;;;;;;2.83;0.80;;;18.90;68.80;;;;;;5020570;28;20041;-74
2022/05/28 12:14:05;;;;;;;4.03;0.85;;;18.90;68.80;;;;;;5022322;28;20127;-74
2022/05/28 12:16:41;;;;;;;3.30;0.70;;;18.90;68.60;;;;;;5020236;28;20281;-73
2022/05/28 12:19:15;;;;;;;5.50;1.00;;;18.70;65.90;;;;;;5010969;28;20428;-74
2022/05/28 12:21:43;;;;;;;8.13;1.20;;;18.30;66.00;;;;;;5016859;28;20394;-73
2022/05/28 12:24:14;;;;;;;6.07;1.20;;;18.10;67.60;;;;;;5020950;28;20036;-74
2022/05/28 12:29:49;;;;;;;5.05;1.10;;;18.60;70.60;;;;;;5020453;28;20026;-73
2022/05/28 12:32:20;;;;;;;6.00;1.30;;;18.60;66.50;;;;;;5010035;28;20046;-73
2022/05/28 12:35:09;;;;;;;6.25;1.15;;;18.40;66.00;;;;;;5006807;28;20033;-74
2022/05/28 12:37:34;;;;;;;5.15;0.98;;;18.30;66.70;;;;;;5020277;28;20037;-74
2022/05/28 12:40:08;;;;;;;3.80;0.70;;;18.30;67.20;;;;;;5020245;28;20025;-73
2022/05/28 12:42:33;;;;;;;3.05;0.70;;;18.50;66.20;;;;;;5013295;28;20037;-73
2022/05/28 12:45:17;;;;;;;3.60;0.80;;;18.70;66.80;;;;;;5005992;28;20022;-73
2022/05/28 12:47:43;;;;;;;;;;;18.60;66.90;;;;;;5005013;28;20512;-73
2022/05/28 12:50:32;;;;;;;3.35;0.90;;;18.50;67.60;;;;;;5002499;28;19971;-75
2022/05/28 12:53:11;;;;;;;3.35;0.60;;;18.40;68.10;;;;;;4995657;28;20036;-74
2022/05/28 12:55:39;;;;;;;3.47;0.88;;;18.40;68.70;;;;;;5007454;28;20381;-74
2022/05/28 12:58:12;;;;;;;2.17;0.60;;;18.50;68.70;;;;;;5007702;28;20057;-74
2022/05/28 13:00:41;;;;;;;6.72;0.95;;;18.50;69.20;;;;;;5000975;28;20021;-74
2022/05/28 13:03:07;;;;;;;4.25;1.00;;;18.60;67.40;;;;;;4989836;28;20026;-74
2022/05/28 13:05:38;;;;;;;2.88;0.82;;;18.60;67.80;;;;;;4998696;28;20029;-74
2022/05/28 13:08:17;;;;;;;6.32;0.95;;;18.50;66.30;;;;;;5001534;28;20034;-74
2022/05/28 13:10:52;;;;;;;6.00;0.95;;;18.30;67.80;;;;;;4998296;28;20029;-74
2022/05/28 13:14:10;;;;;;;2.85;0.90;;;18.10;70.10;;;;;;4997579;28;20753;-75
2022/05/28 13:16:57;;;;;;;4.07;0.82;;;17.80;70.40;;;;;;4979686;28;20442;-74
2022/05/28 13:20:03;;;;;;;4.47;0.82;;;17.60;70.40;;;;;;4996181;28;20048;-74
2022/05/28 13:22:38;;;;;;;4.85;0.90;;;17.50;70.50;;;;;;4989999;28;20042;-74
2022/05/28 13:25:22;;;;;;;3.67;1.10;;;17.60;71.50;;;;;;4997394;28;20034;-74
2022/05/28 13:28:01;;;;;;;2.58;0.90;;;17.60;72.80;;;;;;4999584;28;20088;-74